createdAt,value
2024-01-06T00:00:28.395Z,15.52
2024-01-06T00:02:55.881Z,14.70
2024-01-06T00:05:23.240Z,14.40
2024-01-06T00:07:50.933Z,15.27
2024-01-06T00:10:18.946Z,19.63
2024-01-06T00:12:46.680Z,18.75
2024-01-06T00:15:14.258Z,19.58
2024-01-06T00:17:41.796Z,13.32
2024-01-06T00:20:09.920Z,16.00
2024-01-06T00:22:37.367Z,14.15
2024-01-06T00:25:05.081Z,15.38
2024-01-06T00:27:32.716Z,15.48
2024-01-06T00:30:00.178Z,15.55
2024-01-06T00:32:27.596Z,15.20
2024-01-06T00:34:55.474Z,15.63
2024-01-06T00:37:22.987Z,14.40
2024-01-06T00:39:50.420Z,15.82
2024-01-06T00:42:17.840Z,14.48
2024-01-06T00:44:46.671Z,12.45
2024-01-06T00:47:16.247Z,13.63
2024-01-06T00:49:43.642Z,12.18
2024-01-06T00:52:11.139Z,11.38
2024-01-06T00:54:38.665Z,15.30
2024-01-06T00:57:06.191Z,15.27
2024-01-06T00:59:33.785Z,15.13
2024-01-06T01:02:01.291Z,13.27
2024-01-06T01:04:28.649Z,12.07
2024-01-06T01:06:56.042Z,14.10
2024-01-06T01:09:23.746Z,12.00
2024-01-06T01:11:51.355Z,12.25
2024-01-06T01:14:20.158Z,11.13
2024-01-06T01:16:47.620Z,12.57
2024-01-06T01:19:15.640Z,12.70
2024-01-06T01:21:43.155Z,11.68
2024-01-06T01:24:10.667Z,11.45
2024-01-06T01:26:38.124Z,10.45
2024-01-06T01:29:05.882Z,11.20
2024-01-06T01:31:33.379Z,10.77
2024-01-06T01:34:01.027Z,11.25
2024-01-06T01:36:28.636Z,13.15
2024-01-06T01:38:56.101Z,12.32
2024-01-06T01:41:23.485Z,13.20
2024-01-06T01:43:59.291Z,12.00
2024-01-06T01:46:28.117Z,13.95
2024-01-06T01:48:56.989Z,15.10
2024-01-06T01:51:27.746Z,14.40
2024-01-06T01:56:23.275Z,10.63
2024-01-06T01:58:50.807Z,12.15
2024-01-06T02:01:22.620Z,12.85
2024-01-06T02:03:50.147Z,11.55
2024-01-06T02:06:17.748Z,13.15
2024-01-06T02:08:45.248Z,11.82
2024-01-06T02:11:12.678Z,12.98
2024-01-06T02:13:40.054Z,12.00
2024-01-06T02:16:07.530Z,12.50
2024-01-06T02:18:35.310Z,14.27
2024-01-06T02:21:04.081Z,11.68
2024-01-06T02:23:31.518Z,12.40
2024-01-06T02:25:59.111Z,13.23
2024-01-06T02:28:26.460Z,11.95
2024-01-06T02:30:54.389Z,10.82
2024-01-06T02:33:24.797Z,11.68
2024-01-06T02:35:52.473Z,9.68
2024-01-06T02:38:19.849Z,11.00
2024-01-06T02:40:47.307Z,14.25
2024-01-06T02:43:14.782Z,11.48
2024-01-06T02:45:42.243Z,11.32
2024-01-06T02:48:09.829Z,13.43
2024-01-06T02:50:37.314Z,13.50
2024-01-06T02:53:04.834Z,13.57
2024-01-06T02:55:32.246Z,15.88
2024-01-06T02:57:59.662Z,12.85
2024-01-06T03:00:27.201Z,12.75
2024-01-06T03:02:54.861Z,13.90
2024-01-06T03:05:22.471Z,15.43
2024-01-06T03:07:49.952Z,15.82
2024-01-06T03:10:17.335Z,12.05
2024-01-06T03:12:44.806Z,16.90
2024-01-06T03:15:12.864Z,15.40
2024-01-06T03:17:40.617Z,19.35
2024-01-06T03:20:09.077Z,12.15
2024-01-06T03:22:37.135Z,13.75
2024-01-06T03:25:05.185Z,13.82
2024-01-06T03:27:35.678Z,18.60
2024-01-06T03:30:03.225Z,18.38
2024-01-06T03:32:31.108Z,22.55
2024-01-06T03:34:58.588Z,17.13
2024-01-06T03:37:26.478Z,18.70
2024-01-06T03:39:53.844Z,14.75
2024-01-06T03:42:21.352Z,16.90
2024-01-06T03:44:49.022Z,17.88
2024-01-06T03:47:16.496Z,17.50
2024-01-06T03:49:43.920Z,13.07
2024-01-06T03:52:11.490Z,16.70
2024-01-06T03:54:38.973Z,15.23
2024-01-06T03:57:06.650Z,15.95
2024-01-06T03:59:34.242Z,15.55
2024-01-06T04:02:01.973Z,19.10
2024-01-06T04:04:29.528Z,17.80
2024-01-06T04:06:56.906Z,16.60
2024-01-06T04:09:24.724Z,17.58
2024-01-06T04:11:52.029Z,19.10
2024-01-06T04:14:19.396Z,15.25
2024-01-06T04:16:47.205Z,15.63
2024-01-06T04:19:16.324Z,15.10
2024-01-06T04:21:44.099Z,15.25
2024-01-06T04:24:11.818Z,17.10
2024-01-06T04:26:39.633Z,17.40
2024-01-06T04:29:07.445Z,15.20
2024-01-06T04:31:35.028Z,17.00
2024-01-06T04:34:03.321Z,15.23
2024-01-06T04:36:30.773Z,15.38
2024-01-06T04:38:58.184Z,13.70
2024-01-06T04:41:25.686Z,15.70
2024-01-06T04:43:53.126Z,14.18
2024-01-06T04:46:20.626Z,12.25
2024-01-06T04:48:48.818Z,14.45
2024-01-06T04:51:17.029Z,13.05
2024-01-06T04:53:44.412Z,14.60
2024-01-06T04:56:11.804Z,13.40
2024-01-06T04:58:39.147Z,11.20
2024-01-06T05:01:06.999Z,12.93
2024-01-06T05:03:34.816Z,13.98
2024-01-06T05:06:02.248Z,13.82
2024-01-06T05:11:13.491Z,12.00
2024-01-06T05:13:41.128Z,13.23
2024-01-06T05:16:09.254Z,13.05
2024-01-06T05:22:37.115Z,12.65
2024-01-06T05:25:04.903Z,12.75
2024-01-06T05:27:32.533Z,14.15
2024-01-06T05:30:00.290Z,12.18
2024-01-06T05:32:27.816Z,12.88
2024-01-06T05:34:55.435Z,11.77
2024-01-06T05:37:23.060Z,13.95
2024-01-06T05:39:50.741Z,16.58
2024-01-06T05:42:18.238Z,14.77
2024-01-06T05:44:45.646Z,13.00
2024-01-06T05:47:13.155Z,14.52
2024-01-06T05:49:44.540Z,14.18
2024-01-06T05:52:12.008Z,12.80
2024-01-06T05:54:45.788Z,11.95
2024-01-06T05:57:13.540Z,12.73
2024-01-06T05:59:41.683Z,12.85
2024-01-06T06:02:09.170Z,12.93
2024-01-06T06:04:37.020Z,16.50
2024-01-06T06:07:04.931Z,12.57
2024-01-06T06:09:35.184Z,12.75
2024-01-06T06:12:02.617Z,11.68
2024-01-06T06:14:30.639Z,11.35
2024-01-06T06:16:58.323Z,11.02
2024-01-06T06:19:25.898Z,13.27
2024-01-06T06:21:53.805Z,12.65
2024-01-06T06:24:21.598Z,12.77
2024-01-06T06:26:49.141Z,12.30
2024-01-06T06:29:17.068Z,15.38
2024-01-06T06:31:46.092Z,13.88
2024-01-06T06:34:14.719Z,13.27
2024-01-06T06:36:42.277Z,14.57
2024-01-06T06:39:10.226Z,14.90
2024-01-06T06:41:37.613Z,14.32
2024-01-06T06:44:05.656Z,13.10
2024-01-06T06:46:32.974Z,14.20
2024-01-06T06:49:00.473Z,12.77
2024-01-06T06:51:28.943Z,15.35
2024-01-06T06:53:56.707Z,17.20
2024-01-06T06:56:24.207Z,16.48
2024-01-06T06:58:51.763Z,16.63
2024-01-06T07:01:19.363Z,14.20
2024-01-06T07:03:46.852Z,16.45
2024-01-06T07:06:14.981Z,17.10
2024-01-06T07:08:43.513Z,17.95
2024-01-06T07:11:12.847Z,17.30
2024-01-06T07:13:40.729Z,17.70
2024-01-06T07:16:17.695Z,18.08
2024-01-06T07:18:47.538Z,17.50
2024-01-06T07:21:15.305Z,19.75
2024-01-06T07:23:43.941Z,19.88
2024-01-06T07:26:11.398Z,21.25
2024-01-06T07:28:38.800Z,21.63
2024-01-06T07:31:06.842Z,23.95
2024-01-06T07:33:34.473Z,21.48
2024-01-06T07:36:02.123Z,23.52
2024-01-06T07:38:32.326Z,22.20
2024-01-06T07:40:59.941Z,18.17
2024-01-06T07:43:27.408Z,22.20
2024-01-06T07:45:55.108Z,19.85
2024-01-06T07:48:23.081Z,22.55
2024-01-06T07:50:51.163Z,18.58
2024-01-06T07:53:19.080Z,20.38
2024-01-06T07:55:46.820Z,19.85
2024-01-06T07:58:14.470Z,18.70
2024-01-06T08:00:42.286Z,21.88
2024-01-06T08:03:09.751Z,22.63
2024-01-06T08:05:37.223Z,20.52
2024-01-06T08:08:05.753Z,20.48
2024-01-06T08:10:33.140Z,18.52
2024-01-06T08:13:00.638Z,18.83
2024-01-06T08:15:28.090Z,22.40
2024-01-06T08:17:55.614Z,19.08
2024-01-06T08:20:23.129Z,21.45
2024-01-06T08:22:50.671Z,22.98
2024-01-06T08:25:18.584Z,18.05
2024-01-06T08:27:46.087Z,18.75
2024-01-06T08:30:13.932Z,24.83
2024-01-06T08:32:41.508Z,18.80
2024-01-06T08:35:09.384Z,19.83
2024-01-06T08:37:36.842Z,19.98
2024-01-06T08:40:06.156Z,19.80
2024-01-06T08:42:33.956Z,18.30
2024-01-06T08:45:01.934Z,22.23
2024-01-06T08:47:29.512Z,20.15
2024-01-06T08:49:57.078Z,16.83
2024-01-06T08:52:24.538Z,18.58
2024-01-06T08:54:52.018Z,20.13
2024-01-06T08:57:19.577Z,19.30
2024-01-06T08:59:46.970Z,19.38
2024-01-06T09:02:14.368Z,19.55
2024-01-06T09:04:41.834Z,17.02
2024-01-06T09:07:09.461Z,16.77
2024-01-06T09:09:37.066Z,17.05
2024-01-06T09:12:05.033Z,18.13
2024-01-06T09:14:32.440Z,18.75
2024-01-06T09:17:00.151Z,19.67
2024-01-06T09:19:29.564Z,16.98
2024-01-06T09:21:57.110Z,19.95
2024-01-06T09:24:24.666Z,22.25
2024-01-06T09:26:52.784Z,13.00
2024-01-06T09:29:20.167Z,14.90
2024-01-06T09:31:47.506Z,13.20
2024-01-06T09:34:15.169Z,14.90
2024-01-06T09:36:42.655Z,10.70
2024-01-06T09:39:09.971Z,13.13
2024-01-06T09:41:37.479Z,10.68
2024-01-06T09:44:04.981Z,12.38
2024-01-06T09:46:33.250Z,11.70
2024-01-06T09:49:01.385Z,9.80
2024-01-06T09:51:30.448Z,10.55
2024-01-06T09:54:09.283Z,11.60
2024-01-06T09:56:36.597Z,10.45
2024-01-06T09:59:04.729Z,9.07
2024-01-06T10:01:32.314Z,10.65
2024-01-06T10:03:59.823Z,10.48
2024-01-06T10:06:28.842Z,11.95
2024-01-06T10:08:56.256Z,11.90
2024-01-06T10:11:24.075Z,10.57
2024-01-06T10:13:52.747Z,11.70
2024-01-06T10:16:20.898Z,11.10
2024-01-06T10:18:52.904Z,12.52
2024-01-06T10:21:23.429Z,10.02
2024-01-06T10:23:52.242Z,10.65
2024-01-06T10:26:19.947Z,10.85
2024-01-06T10:28:50.444Z,12.82
2024-01-06T10:31:19.109Z,11.35
2024-01-06T10:33:47.887Z,9.45
2024-01-06T10:36:17.108Z,9.35
2024-01-06T10:38:46.455Z,15.20
2024-01-06T10:41:16.316Z,9.50
2024-01-06T10:43:45.017Z,12.23
2024-01-06T10:46:13.647Z,10.88
2024-01-06T10:48:45.371Z,11.55
2024-01-06T10:51:15.004Z,11.57
2024-01-06T10:53:44.239Z,12.63
2024-01-06T10:56:12.009Z,10.88
2024-01-06T10:58:48.045Z,11.35
2024-01-06T11:01:19.349Z,9.77
2024-01-06T11:03:50.313Z,11.50
2024-01-06T11:06:19.964Z,10.40
2024-01-06T11:09:06.266Z,10.75
2024-01-06T11:11:34.435Z,10.55
2024-01-06T11:14:25.609Z,42.60
2024-01-06T11:16:54.626Z,10.75
2024-01-06T11:19:38.549Z,9.65
2024-01-06T11:22:25.652Z,11.10
2024-01-06T11:24:55.137Z,11.55
2024-01-06T11:27:27.891Z,11.05
2024-01-06T11:30:02.035Z,11.90
2024-01-06T11:32:33.130Z,11.95
2024-01-06T11:35:15.121Z,11.90
2024-01-06T11:37:42.830Z,11.43
2024-01-06T11:40:13.808Z,11.45
2024-01-06T11:42:45.524Z,11.80
2024-01-06T11:45:14.764Z,9.80
2024-01-06T11:47:48.994Z,11.32
2024-01-06T11:50:16.966Z,11.80
2024-01-06T11:52:44.464Z,9.77
2024-01-06T11:55:12.491Z,9.05
2024-01-06T11:57:39.815Z,8.80
2024-01-06T12:00:07.700Z,11.88
2024-01-06T12:02:35.093Z,10.27
2024-01-06T12:05:02.418Z,11.35
2024-01-06T12:07:31.396Z,10.55
2024-01-06T12:10:04.801Z,11.85
2024-01-06T12:12:32.446Z,10.00
2024-01-06T12:15:00.011Z,10.05
2024-01-06T12:17:32.722Z,9.38
2024-01-06T12:20:00.512Z,9.43
2024-01-06T12:22:28.299Z,10.05
2024-01-06T12:24:56.121Z,11.13
2024-01-06T12:27:26.254Z,11.45
2024-01-06T12:29:54.293Z,11.05
2024-01-06T12:32:21.584Z,9.07
2024-01-06T12:34:49.369Z,10.63
2024-01-06T12:37:18.225Z,9.13
2024-01-06T12:39:48.640Z,9.23
2024-01-06T12:42:19.266Z,11.68
2024-01-06T12:44:46.605Z,13.43
2024-01-06T12:47:14.510Z,9.48
2024-01-06T12:49:41.999Z,10.30
2024-01-06T12:52:09.472Z,11.05
2024-01-06T12:54:36.888Z,10.98
2024-01-06T12:57:04.577Z,9.05
2024-01-06T12:59:31.949Z,10.32
2024-01-06T13:01:59.559Z,10.90
2024-01-06T13:04:27.022Z,9.45
2024-01-06T13:06:54.498Z,9.90
2024-01-06T13:09:24.887Z,12.40
2024-01-06T13:11:52.600Z,12.13
2024-01-06T13:14:19.848Z,13.45
2024-01-06T13:16:47.166Z,12.05
2024-01-06T13:19:14.678Z,11.18
2024-01-06T13:21:42.145Z,11.70
2024-01-06T13:24:10.441Z,12.10
2024-01-06T13:26:37.979Z,9.40
2024-01-06T13:29:05.489Z,11.85
2024-01-06T13:31:34.075Z,11.05
2024-01-06T13:34:01.673Z,12.15
2024-01-06T13:36:29.239Z,11.13
2024-01-06T13:38:56.589Z,10.48
2024-01-06T13:41:23.974Z,12.95
2024-01-06T13:43:52.036Z,12.70
2024-01-06T13:46:19.442Z,12.25
2024-01-06T13:48:46.795Z,14.50
2024-01-06T13:51:15.585Z,12.63
2024-01-06T13:53:43.691Z,11.30
2024-01-06T13:56:11.114Z,12.48
2024-01-06T13:58:39.708Z,13.00
2024-01-06T14:01:07.273Z,11.93
2024-01-06T14:03:34.933Z,12.93
2024-01-06T14:06:02.502Z,15.85
2024-01-06T14:08:29.906Z,12.93
2024-01-06T14:10:57.370Z,16.58
2024-01-06T14:13:24.733Z,15.52
2024-01-06T14:15:52.074Z,13.38
2024-01-06T14:18:19.521Z,12.95
2024-01-06T14:20:47.215Z,12.77
2024-01-06T14:23:14.560Z,15.77
2024-01-06T14:25:41.903Z,18.30
2024-01-06T14:28:09.306Z,12.77
2024-01-06T14:30:36.849Z,12.02
2024-01-06T14:33:04.430Z,16.80
2024-01-06T14:35:31.837Z,14.38
2024-01-06T14:37:59.154Z,14.68
2024-01-06T14:40:26.481Z,13.45
2024-01-06T14:42:53.963Z,13.35
2024-01-06T14:45:23.313Z,13.57
2024-01-06T14:47:52.368Z,13.52
2024-01-06T14:50:19.853Z,15.57
2024-01-06T14:52:47.534Z,15.00
2024-01-06T14:55:15.032Z,14.85
2024-01-06T14:57:42.804Z,17.25
2024-01-06T15:00:13.628Z,15.38
2024-01-06T15:02:40.961Z,12.63
2024-01-06T15:05:08.891Z,12.85
2024-01-06T15:07:36.443Z,14.15
2024-01-06T15:10:05.207Z,12.57
2024-01-06T15:12:33.042Z,13.05
2024-01-06T15:15:00.727Z,15.65
2024-01-06T15:17:28.634Z,14.40
2024-01-06T15:19:56.302Z,14.13
2024-01-06T15:22:23.973Z,11.93
2024-01-06T15:24:57.578Z,12.02
2024-01-06T15:27:26.195Z,14.00
2024-01-06T15:29:53.679Z,13.55
2024-01-06T15:32:21.209Z,12.30
2024-01-06T15:34:48.599Z,12.50
2024-01-06T15:37:16.025Z,12.23
2024-01-06T15:39:43.436Z,10.18
2024-01-06T15:42:11.211Z,11.40
2024-01-06T15:44:39.151Z,13.27
2024-01-06T15:47:06.495Z,11.85
2024-01-06T15:49:34.355Z,11.48
2024-01-06T15:52:02.756Z,10.90
2024-01-06T15:54:30.804Z,11.95
2024-01-06T15:56:58.302Z,13.20
2024-01-06T15:59:25.970Z,12.70
2024-01-06T16:01:53.585Z,12.05
2024-01-06T16:04:21.094Z,12.48
2024-01-06T16:06:49.495Z,11.25
2024-01-06T16:09:16.896Z,10.27
2024-01-06T16:11:44.515Z,10.48
2024-01-06T16:14:11.829Z,9.43
2024-01-06T16:16:39.166Z,12.88
2024-01-06T16:19:06.693Z,10.70
2024-01-06T16:21:34.102Z,9.88
2024-01-06T16:24:01.458Z,10.52
2024-01-06T16:26:29.380Z,10.68
2024-01-06T16:28:56.678Z,9.70
2024-01-06T16:31:27.272Z,9.73
2024-01-06T16:33:54.704Z,9.50
2024-01-06T16:36:23.180Z,11.13
2024-01-06T16:38:50.922Z,9.48
2024-01-06T16:41:18.386Z,11.68
2024-01-06T16:43:45.690Z,9.05
2024-01-06T16:46:14.009Z,10.85
2024-01-06T16:48:41.685Z,9.35
2024-01-06T16:51:10.125Z,9.57
2024-01-06T16:53:37.614Z,8.57
2024-01-06T16:56:05.392Z,10.88
2024-01-06T16:58:32.967Z,14.10
2024-01-06T17:01:00.343Z,8.95
2024-01-06T17:03:27.827Z,9.35
2024-01-06T17:05:55.205Z,8.55
2024-01-06T17:08:22.576Z,10.35
2024-01-06T17:10:50.145Z,10.90
2024-01-06T17:13:18.335Z,9.60
2024-01-06T17:15:45.632Z,11.20
2024-01-06T17:18:13.580Z,12.15
2024-01-06T17:20:43.191Z,10.30
2024-01-06T17:23:10.498Z,9.65
2024-01-06T17:25:39.226Z,11.43
2024-01-06T17:28:06.734Z,9.85
2024-01-06T17:30:34.219Z,11.77
2024-01-06T17:33:01.890Z,9.98
2024-01-06T17:35:29.181Z,10.60
2024-01-06T17:37:56.463Z,10.95
2024-01-06T17:40:23.784Z,11.82
2024-01-06T17:42:51.161Z,9.95
2024-01-06T17:45:18.680Z,9.90
2024-01-06T17:47:48.073Z,9.73
2024-01-06T17:50:15.770Z,8.73
2024-01-06T17:52:44.968Z,9.40
2024-01-06T17:55:12.286Z,12.50
2024-01-06T17:57:39.573Z,10.48
2024-01-06T18:00:09.197Z,8.73
2024-01-06T18:02:38.993Z,9.10
2024-01-06T18:07:34.742Z,8.27
2024-01-06T18:10:02.656Z,9.27
2024-01-06T18:12:30.871Z,7.30
2024-01-06T18:14:59.384Z,9.55
2024-01-06T18:17:28.080Z,10.07
2024-01-06T18:19:55.514Z,8.55
2024-01-06T18:22:23.738Z,7.35
2024-01-06T18:24:51.481Z,8.52
2024-01-06T18:27:18.996Z,9.70
2024-01-06T18:29:46.331Z,8.98
2024-01-06T18:32:15.630Z,9.30
2024-01-06T18:34:46.563Z,7.82
2024-01-06T18:37:14.403Z,10.40
2024-01-06T18:39:42.435Z,9.05
2024-01-06T18:42:17.552Z,8.73
2024-01-06T18:44:45.109Z,11.95
2024-01-06T18:47:15.378Z,10.73
2024-01-06T18:49:43.351Z,10.20
2024-01-06T18:52:11.581Z,10.13
2024-01-06T18:54:42.425Z,9.57
2024-01-06T18:57:13.435Z,10.52
2024-01-06T19:02:17.437Z,10.27
2024-01-06T19:04:45.286Z,10.00
2024-01-06T19:07:12.846Z,10.05
2024-01-06T19:09:40.271Z,11.98
2024-01-06T19:12:07.733Z,12.75
2024-01-06T19:14:36.880Z,11.70
2024-01-06T19:17:04.882Z,11.00
2024-01-06T19:19:40.249Z,10.15
2024-01-06T19:22:08.486Z,10.25
2024-01-06T19:24:42.916Z,12.80
2024-01-06T19:27:12.694Z,13.10
2024-01-06T19:29:47.581Z,12.70
2024-01-06T19:32:16.468Z,11.60
2024-01-06T19:34:44.195Z,12.88
2024-01-06T19:37:11.652Z,12.63
2024-01-06T19:39:39.450Z,11.55
2024-01-06T19:42:08.532Z,15.00
2024-01-06T19:44:35.979Z,12.48
2024-01-06T19:47:03.430Z,12.68
2024-01-06T19:49:31.456Z,14.77
2024-01-06T19:51:59.123Z,12.13
2024-01-06T19:54:26.579Z,16.15
2024-01-06T19:56:53.863Z,13.38
2024-01-06T19:59:21.166Z,13.73
2024-01-06T20:01:49.504Z,16.75
2024-01-06T20:04:17.378Z,15.98
2024-01-06T20:06:46.362Z,15.52
2024-01-06T20:09:14.130Z,13.43
2024-01-06T20:11:41.619Z,14.15
2024-01-06T20:14:08.960Z,12.10
2024-01-06T20:16:37.161Z,12.60
2024-01-06T20:19:04.941Z,14.73
2024-01-06T20:21:32.441Z,11.18
2024-01-06T20:24:00.524Z,12.88
2024-01-06T20:26:30.962Z,12.30
2024-01-06T20:29:00.040Z,12.40
2024-01-06T20:31:27.531Z,12.43
2024-01-06T20:33:55.596Z,11.30
2024-01-06T20:36:23.210Z,12.25
2024-01-06T20:38:52.984Z,13.13
2024-01-06T20:41:20.437Z,11.50
2024-01-06T20:43:47.747Z,13.73
2024-01-06T20:46:19.904Z,9.95
2024-01-06T20:48:47.505Z,10.45
2024-01-06T20:51:21.132Z,10.02
2024-01-06T20:53:50.216Z,10.50
2024-01-06T20:56:18.076Z,11.90
2024-01-06T20:58:45.491Z,9.20
2024-01-06T21:01:13.542Z,7.47
2024-01-06T21:03:42.478Z,9.90
2024-01-06T21:06:13.142Z,12.75
2024-01-06T21:08:40.476Z,10.18
2024-01-06T21:11:09.453Z,7.00
2024-01-06T21:13:36.800Z,7.93
2024-01-06T21:16:04.872Z,8.13
2024-01-06T21:18:32.567Z,7.05
2024-01-06T21:21:00.021Z,10.95
2024-01-06T21:23:35.753Z,10.10
2024-01-06T21:26:12.485Z,10.35
2024-01-06T21:28:39.883Z,5.25
2024-01-06T21:31:07.462Z,8.70
2024-01-06T21:33:35.117Z,6.45
2024-01-06T21:36:02.686Z,7.00
2024-01-06T21:38:30.125Z,6.38
2024-01-06T21:40:57.524Z,8.68
2024-01-06T21:43:24.930Z,7.53
2024-01-06T21:45:53.632Z,8.57
2024-01-06T21:48:21.273Z,9.73
2024-01-06T21:50:49.522Z,7.57
2024-01-06T21:53:16.871Z,7.88
2024-01-06T21:55:44.503Z,7.47
2024-01-06T21:58:12.015Z,9.65
2024-01-06T22:00:40.010Z,9.18
2024-01-06T22:03:08.946Z,6.57
2024-01-06T22:05:36.352Z,11.70
2024-01-06T22:08:05.326Z,9.82
2024-01-06T22:10:35.577Z,7.55
2024-01-06T22:13:03.344Z,7.93
2024-01-06T22:15:34.087Z,8.43
2024-01-06T22:18:07.181Z,10.90
2024-01-06T22:20:34.578Z,7.47
2024-01-06T22:23:01.943Z,6.50
2024-01-06T22:25:29.430Z,7.45
2024-01-06T22:27:56.751Z,8.27
2024-01-06T22:30:24.292Z,6.82
2024-01-06T22:32:51.896Z,7.50
2024-01-06T22:35:19.349Z,7.55
2024-01-06T22:37:47.997Z,6.75
2024-01-06T22:40:16.670Z,7.45
2024-01-06T22:42:43.973Z,8.02
2024-01-06T22:45:12.406Z,6.55
2024-01-06T22:47:39.878Z,9.82
2024-01-06T22:50:08.160Z,8.02
2024-01-06T22:52:35.653Z,8.75
2024-01-06T22:55:03.053Z,7.57
2024-01-06T22:57:30.851Z,6.63
2024-01-06T22:59:59.302Z,6.72
2024-01-06T23:02:26.902Z,9.38
2024-01-06T23:04:56.825Z,9.95
2024-01-06T23:07:24.886Z,5.25
2024-01-06T23:09:52.319Z,5.90
2024-01-06T23:12:19.756Z,6.97
2024-01-06T23:14:47.140Z,8.65
2024-01-06T23:17:14.745Z,7.60
2024-01-06T23:19:45.839Z,7.63
2024-01-06T23:22:13.928Z,6.13
2024-01-06T23:24:41.695Z,7.80
2024-01-06T23:27:09.203Z,4.80
2024-01-06T23:29:39.257Z,7.38
2024-01-06T23:32:08.291Z,5.03
2024-01-06T23:34:42.328Z,6.07
2024-01-06T23:37:11.226Z,5.25
2024-01-06T23:39:38.811Z,6.13
2024-01-06T23:42:06.636Z,6.32
2024-01-06T23:44:34.414Z,5.60
2024-01-06T23:47:01.970Z,5.68
2024-01-06T23:49:29.558Z,5.28
2024-01-06T23:51:57.268Z,4.82
2024-01-06T23:54:24.838Z,6.05
2024-01-06T23:56:52.244Z,5.47
2024-01-06T23:59:20.808Z,6.32
